createdAt,value
2022-09-28T00:00:22.283Z,0.00
2022-09-28T00:01:22.308Z,0.00
2022-09-28T00:02:22.352Z,0.00
2022-09-28T00:03:22.234Z,0.00
2022-09-28T00:04:22.212Z,0.00
2022-09-28T00:05:22.226Z,0.00
2022-09-28T00:06:22.203Z,0.00
2022-09-28T00:07:22.181Z,0.00
2022-09-28T00:08:22.167Z,0.00
2022-09-28T00:09:22.144Z,0.00
2022-09-28T00:10:22.132Z,0.00
2022-09-28T00:11:22.144Z,0.00
2022-09-28T00:12:22.181Z,0.00
2022-09-28T00:13:22.111Z,0.00
2022-09-28T00:14:22.111Z,0.00
2022-09-28T00:15:22.087Z,0.00
2022-09-28T00:16:22.138Z,0.00
2022-09-28T00:17:22.036Z,0.00
2022-09-28T00:18:22.026Z,0.00
2022-09-28T00:19:22.040Z,0.00
2022-09-28T00:20:22.001Z,0.00
2022-09-28T00:21:22.053Z,0.00
2022-09-28T00:22:21.983Z,0.00
2022-09-28T00:23:21.959Z,0.00
2022-09-28T00:24:26.633Z,0.00
2022-09-28T00:25:21.999Z,0.00
2022-09-28T00:26:21.926Z,0.00
2022-09-28T00:27:21.901Z,0.00
2022-09-28T00:28:21.925Z,0.00
2022-09-28T00:29:21.884Z,0.00
2022-09-28T00:30:21.878Z,0.00
2022-09-28T00:31:21.932Z,0.00
2022-09-28T00:32:21.840Z,0.00
2022-09-28T00:33:21.835Z,0.00
2022-09-28T00:34:22.704Z,0.00
2022-09-28T00:35:21.799Z,0.00
2022-09-28T00:36:21.829Z,0.00
2022-09-28T00:37:21.820Z,0.00
2022-09-28T00:38:21.821Z,0.00
2022-09-28T00:39:21.770Z,0.00
2022-09-28T00:40:21.828Z,0.00
2022-09-28T00:41:21.759Z,0.00
2022-09-28T00:42:21.738Z,0.00
2022-09-28T00:43:21.723Z,0.00
2022-09-28T00:44:21.698Z,0.00
2022-09-28T00:45:21.673Z,0.00
2022-09-28T00:46:21.656Z,0.00
2022-09-28T00:47:21.664Z,0.00
2022-09-28T00:48:21.679Z,0.00
2022-09-28T00:49:21.649Z,0.00
2022-09-28T00:50:21.621Z,0.00
2022-09-28T00:51:21.625Z,0.00
2022-09-28T00:52:21.621Z,0.00
2022-09-28T00:53:21.575Z,0.00
2022-09-28T00:54:21.577Z,0.00
2022-09-28T00:55:21.554Z,0.00
2022-09-28T00:56:21.546Z,0.00
2022-09-28T00:57:21.557Z,0.00
2022-09-28T00:58:21.538Z,0.00
2022-09-28T00:59:21.497Z,0.00
2022-09-28T01:00:21.506Z,0.00
2022-09-28T01:01:21.520Z,0.00
2022-09-28T01:02:21.559Z,0.00
2022-09-28T01:03:21.471Z,0.00
2022-09-28T01:04:21.474Z,0.00
2022-09-28T01:05:21.435Z,0.00
2022-09-28T01:06:21.398Z,0.00
2022-09-28T01:07:21.408Z,0.00
2022-09-28T01:08:21.381Z,0.00
2022-09-28T01:09:21.354Z,0.00
2022-09-28T01:10:21.414Z,0.00
2022-09-28T01:11:21.419Z,0.00
2022-09-28T01:12:21.338Z,0.00
2022-09-28T01:13:21.364Z,0.00
2022-09-28T01:14:21.338Z,0.00
2022-09-28T01:15:21.280Z,0.00
2022-09-28T01:16:21.311Z,0.00
2022-09-28T01:17:21.304Z,0.00
2022-09-28T01:18:21.266Z,0.00
2022-09-28T01:19:21.396Z,0.00
2022-09-28T01:20:21.239Z,0.00
2022-09-28T01:21:21.230Z,0.00
2022-09-28T01:22:21.242Z,0.00
2022-09-28T01:23:21.211Z,0.00
2022-09-28T01:24:21.228Z,0.00
2022-09-28T01:25:21.179Z,0.00
2022-09-28T01:26:21.152Z,0.00
2022-09-28T01:27:21.144Z,0.00
2022-09-28T01:28:21.124Z,0.00
2022-09-28T01:29:21.124Z,0.00
2022-09-28T01:30:21.105Z,0.00
2022-09-28T01:31:21.197Z,0.00
2022-09-28T01:32:21.144Z,0.00
2022-09-28T01:33:21.121Z,0.00
2022-09-28T01:34:21.111Z,0.00
2022-09-28T01:35:21.073Z,0.00
2022-09-28T01:36:21.018Z,0.00
2022-09-28T01:37:21.042Z,0.00
2022-09-28T01:38:20.982Z,0.00
2022-09-28T01:39:20.989Z,0.00
2022-09-28T01:40:21.002Z,0.00
2022-09-28T01:41:20.961Z,0.00
2022-09-28T01:42:20.964Z,0.00
2022-09-28T01:43:20.940Z,0.00
2022-09-28T01:44:20.910Z,0.00
2022-09-28T01:45:20.928Z,0.00
2022-09-28T01:46:20.988Z,0.00
2022-09-28T01:47:20.898Z,0.00
2022-09-28T01:48:20.846Z,0.00
2022-09-28T01:49:20.873Z,0.00
2022-09-28T01:50:20.865Z,0.00
2022-09-28T01:51:20.835Z,0.00
2022-09-28T01:52:20.788Z,0.00
2022-09-28T01:53:20.826Z,0.00
2022-09-28T01:54:20.779Z,0.00
2022-09-28T01:55:20.765Z,0.00
2022-09-28T01:56:20.829Z,0.00
2022-09-28T01:57:20.752Z,0.00
2022-09-28T01:58:20.743Z,0.00
2022-09-28T01:59:20.783Z,0.00
2022-09-28T02:00:20.691Z,0.00
2022-09-28T02:01:20.742Z,0.00
2022-09-28T02:02:20.835Z,0.00
2022-09-28T02:03:20.667Z,0.00
2022-09-28T02:04:20.654Z,0.00
2022-09-28T02:05:20.635Z,0.00
2022-09-28T02:06:20.627Z,0.00
2022-09-28T02:07:20.618Z,0.00
2022-09-28T02:08:20.594Z,0.00
2022-09-28T02:09:20.591Z,0.00
2022-09-28T02:10:20.583Z,0.00
2022-09-28T02:11:20.564Z,0.00
2022-09-28T02:12:20.589Z,0.00
2022-09-28T02:13:20.556Z,0.00
2022-09-28T02:14:20.506Z,0.00
2022-09-28T02:15:20.546Z,0.00
2022-09-28T02:16:20.553Z,0.00
2022-09-28T02:17:20.471Z,0.00
2022-09-28T02:18:20.495Z,0.00
2022-09-28T02:19:20.469Z,0.00
2022-09-28T02:20:20.435Z,0.00
2022-09-28T02:21:20.431Z,0.00
2022-09-28T02:22:20.398Z,0.00
2022-09-28T02:23:20.403Z,0.00
2022-09-28T02:24:21.658Z,0.00
2022-09-28T02:25:20.370Z,0.00
2022-09-28T02:26:20.340Z,0.00
2022-09-28T02:27:20.392Z,0.00
2022-09-28T02:28:20.359Z,0.00
2022-09-28T02:29:20.332Z,0.00
2022-09-28T02:30:20.312Z,0.00
2022-09-28T02:31:20.323Z,0.00
2022-09-28T02:32:20.311Z,0.00
2022-09-28T02:33:20.259Z,0.00
2022-09-28T02:34:20.271Z,0.00
2022-09-28T02:35:20.247Z,0.00
2022-09-28T02:36:20.217Z,0.00
2022-09-28T02:37:20.227Z,0.00
2022-09-28T02:38:20.216Z,0.00
2022-09-28T02:39:20.190Z,0.00
2022-09-28T02:40:20.224Z,0.00
2022-09-28T02:41:20.179Z,0.00
2022-09-28T02:42:20.153Z,0.00
2022-09-28T02:43:20.142Z,0.00
2022-09-28T02:44:20.133Z,0.00
2022-09-28T02:45:20.169Z,0.00
2022-09-28T02:46:20.192Z,0.00
2022-09-28T02:47:20.104Z,0.00
2022-09-28T02:48:35.949Z,0.00
2022-09-28T02:49:22.313Z,0.00
2022-09-28T02:50:20.045Z,0.00
2022-09-28T02:51:20.054Z,0.00
2022-09-28T02:52:20.042Z,0.00
2022-09-28T02:53:20.021Z,0.00
2022-09-28T02:54:20.022Z,0.00
2022-09-28T02:55:19.999Z,0.00
2022-09-28T02:56:19.954Z,0.00
2022-09-28T02:57:19.991Z,0.00
2022-09-28T02:58:19.938Z,0.00
2022-09-28T02:59:19.932Z,0.00
2022-09-28T03:00:19.917Z,0.00
2022-09-28T03:01:19.985Z,0.00
2022-09-28T03:02:20.000Z,0.00
2022-09-28T03:03:19.863Z,0.00
2022-09-28T03:04:19.851Z,0.00
2022-09-28T03:05:19.856Z,0.00
2022-09-28T03:06:19.828Z,0.00
2022-09-28T03:07:19.822Z,0.00
2022-09-28T03:08:19.820Z,0.00
2022-09-28T03:09:19.801Z,0.00
2022-09-28T03:10:19.789Z,0.00
2022-09-28T03:11:19.779Z,0.00
2022-09-28T03:12:19.743Z,0.00
2022-09-28T03:13:19.738Z,0.00
2022-09-28T03:14:19.732Z,0.00
2022-09-28T03:15:19.705Z,0.00
2022-09-28T03:16:19.797Z,0.00
2022-09-28T03:17:19.715Z,0.00
2022-09-28T03:18:19.683Z,0.00
2022-09-28T03:19:19.658Z,0.00
2022-09-28T03:20:19.663Z,0.00
2022-09-28T03:21:19.643Z,0.00
2022-09-28T03:22:19.685Z,0.00
2022-09-28T03:23:24.679Z,0.00
2022-09-28T03:24:19.609Z,0.00
2022-09-28T03:25:19.612Z,0.00
2022-09-28T03:26:19.584Z,0.00
2022-09-28T03:27:19.721Z,0.00
2022-09-28T03:28:19.555Z,0.00
2022-09-28T03:29:19.526Z,0.00
2022-09-28T03:30:19.516Z,0.00
2022-09-28T03:31:19.607Z,0.00
2022-09-28T03:32:19.509Z,0.00
2022-09-28T03:33:19.493Z,0.00
2022-09-28T03:34:19.464Z,0.00
2022-09-28T03:35:19.465Z,0.00
2022-09-28T03:36:19.453Z,0.00
2022-09-28T03:37:19.447Z,0.00
2022-09-28T03:38:19.439Z,0.00
2022-09-28T03:39:19.408Z,0.00
2022-09-28T03:40:19.418Z,0.00
2022-09-28T03:41:19.397Z,0.00
2022-09-28T03:42:19.356Z,0.00
2022-09-28T03:43:19.389Z,0.00
2022-09-28T03:44:19.353Z,0.00
2022-09-28T03:45:19.338Z,0.00
2022-09-28T03:46:19.447Z,0.00
2022-09-28T03:47:19.314Z,0.00
2022-09-28T03:48:23.939Z,0.00
2022-09-28T03:49:19.276Z,0.00
2022-09-28T03:50:19.305Z,0.00
2022-09-28T03:51:19.258Z,0.00
2022-09-28T03:52:19.237Z,0.00
2022-09-28T03:53:19.228Z,0.00
2022-09-28T03:54:19.196Z,0.00
2022-09-28T03:55:19.204Z,0.00
2022-09-28T03:56:19.182Z,0.00
2022-09-28T03:57:19.163Z,0.00
2022-09-28T03:58:19.143Z,0.00
2022-09-28T03:59:19.162Z,0.00
2022-09-28T04:00:19.130Z,0.00
2022-09-28T04:01:19.216Z,0.00
2022-09-28T04:02:19.186Z,0.00
2022-09-28T04:03:19.105Z,0.00
2022-09-28T04:04:19.078Z,0.00
2022-09-28T04:05:19.066Z,0.00
2022-09-28T04:06:19.060Z,0.00
2022-09-28T04:07:19.050Z,0.00
2022-09-28T04:08:19.028Z,0.00
2022-09-28T04:09:19.021Z,0.00
2022-09-28T04:10:19.008Z,0.00
2022-09-28T04:11:18.982Z,0.00
2022-09-28T04:12:18.985Z,0.00
2022-09-28T04:13:18.975Z,0.00
2022-09-28T04:14:18.952Z,0.00
2022-09-28T04:15:18.925Z,0.00
2022-09-28T04:16:18.993Z,0.00
2022-09-28T04:17:18.909Z,0.00
2022-09-28T04:18:18.882Z,0.00
2022-09-28T04:19:18.935Z,0.00
2022-09-28T04:20:18.865Z,0.00
2022-09-28T04:21:18.879Z,0.00
2022-09-28T04:22:18.842Z,0.00
2022-09-28T04:23:18.842Z,0.00
2022-09-28T04:24:18.815Z,0.00
2022-09-28T04:25:18.827Z,0.00
2022-09-28T04:26:18.793Z,0.00
2022-09-28T04:27:18.797Z,0.00
2022-09-28T04:28:18.773Z,0.00
2022-09-28T04:29:19.099Z,0.00
2022-09-28T04:30:18.740Z,0.00
2022-09-28T04:31:18.828Z,0.00
2022-09-28T04:32:18.731Z,0.00
2022-09-28T04:33:18.693Z,0.00
2022-09-28T04:34:18.673Z,0.00
2022-09-28T04:35:18.666Z,0.00
2022-09-28T04:36:18.667Z,0.00
2022-09-28T04:37:18.635Z,0.00
2022-09-28T04:38:35.667Z,0.00
2022-09-28T04:39:18.799Z,0.00
2022-09-28T04:40:18.665Z,0.00
2022-09-28T04:41:18.597Z,0.00
2022-09-28T04:42:18.571Z,0.00
2022-09-28T04:43:18.576Z,0.00
2022-09-28T04:44:18.587Z,0.00
2022-09-28T04:45:18.558Z,0.00
2022-09-28T04:46:18.567Z,0.00
2022-09-28T04:47:18.526Z,0.00
2022-09-28T04:48:18.489Z,0.00
2022-09-28T04:49:18.688Z,0.00
2022-09-28T04:50:18.463Z,0.00
2022-09-28T04:51:18.497Z,0.00
2022-09-28T04:52:18.810Z,0.00
2022-09-28T04:53:18.459Z,0.00
2022-09-28T04:54:18.470Z,0.00
2022-09-28T04:55:18.424Z,0.00
2022-09-28T04:56:18.419Z,0.00
2022-09-28T04:57:18.377Z,0.00
2022-09-28T04:58:18.380Z,0.00
2022-09-28T04:59:18.572Z,0.00
2022-09-28T05:00:18.344Z,0.00
2022-09-28T05:01:18.425Z,0.00
2022-09-28T05:02:18.385Z,0.00
2022-09-28T05:03:18.312Z,5.62
2022-09-28T05:04:21.297Z,5.62
2022-09-28T05:05:18.305Z,5.62
2022-09-28T05:06:18.257Z,5.62
2022-09-28T05:07:18.263Z,5.62
2022-09-28T05:08:18.233Z,5.62
2022-09-28T05:09:18.400Z,11.25
2022-09-28T05:10:18.328Z,11.25
2022-09-28T05:11:18.204Z,11.25
2022-09-28T05:12:18.192Z,11.25
2022-09-28T05:13:18.176Z,11.25
2022-09-28T05:14:18.175Z,11.25
2022-09-28T05:15:18.141Z,11.25
2022-09-28T05:16:18.169Z,11.25
2022-09-28T05:17:18.154Z,11.25
2022-09-28T05:18:18.125Z,11.25
2022-09-28T05:19:18.206Z,11.25
2022-09-28T05:20:18.140Z,16.88
2022-09-28T05:21:18.072Z,16.88
2022-09-28T05:22:18.075Z,16.88
2022-09-28T05:23:18.062Z,22.50
2022-09-28T05:24:18.055Z,22.50
2022-09-28T05:25:18.005Z,22.50
2022-09-28T05:26:18.005Z,22.50
2022-09-28T05:27:17.999Z,22.50
2022-09-28T05:28:18.003Z,28.12
2022-09-28T05:29:18.122Z,28.12
2022-09-28T05:30:17.970Z,33.75
2022-09-28T05:31:18.037Z,33.75
2022-09-28T05:32:17.951Z,33.75
2022-09-28T05:33:17.904Z,39.38
2022-09-28T05:34:17.952Z,39.38
2022-09-28T05:35:17.900Z,45.00
2022-09-28T05:36:17.865Z,45.00
2022-09-28T05:37:17.853Z,50.62
2022-09-28T05:38:17.868Z,56.25
2022-09-28T05:39:18.057Z,61.88
2022-09-28T05:40:17.882Z,61.88
2022-09-28T05:41:17.813Z,67.50
2022-09-28T05:42:17.805Z,67.50
2022-09-28T05:43:17.812Z,67.50
2022-09-28T05:44:17.912Z,67.50
2022-09-28T05:45:17.765Z,73.12
2022-09-28T05:46:17.845Z,78.75
2022-09-28T05:47:17.727Z,84.38
2022-09-28T05:48:17.730Z,90.00
2022-09-28T05:49:17.716Z,95.62
2022-09-28T05:50:17.694Z,95.62
2022-09-28T05:51:17.666Z,101.25
2022-09-28T05:52:17.681Z,106.88
2022-09-28T05:53:17.654Z,106.88
2022-09-28T05:54:17.940Z,106.88
2022-09-28T05:55:17.613Z,106.88
2022-09-28T05:56:17.649Z,101.25
2022-09-28T05:57:17.651Z,95.62
2022-09-28T05:58:17.595Z,95.62
2022-09-28T05:59:17.589Z,101.25
2022-09-28T06:00:17.564Z,101.25
2022-09-28T06:01:17.666Z,106.88
2022-09-28T06:02:17.656Z,106.88
2022-09-28T06:03:17.597Z,106.88
2022-09-28T06:04:17.667Z,106.88
2022-09-28T06:05:17.490Z,106.88
2022-09-28T06:06:17.496Z,106.88
2022-09-28T06:07:17.494Z,112.50
2022-09-28T06:08:17.501Z,112.50
2022-09-28T06:09:17.509Z,112.50
2022-09-28T06:10:17.437Z,112.50
2022-09-28T06:11:17.437Z,112.50
2022-09-28T06:12:17.484Z,118.12
2022-09-28T06:13:17.434Z,118.12
2022-09-28T06:14:17.457Z,118.12
2022-09-28T06:15:17.454Z,118.12
2022-09-28T06:16:17.447Z,118.12
2022-09-28T06:17:17.332Z,118.12
2022-09-28T06:18:17.321Z,118.12
2022-09-28T06:19:17.342Z,123.75
2022-09-28T06:20:17.340Z,123.75
2022-09-28T06:21:17.293Z,123.75
2022-09-28T06:22:17.284Z,123.75
2022-09-28T06:23:17.259Z,129.38
2022-09-28T06:24:17.409Z,129.38
2022-09-28T06:25:17.248Z,135.00
2022-09-28T06:26:17.250Z,135.00
2022-09-28T06:27:17.211Z,135.00
2022-09-28T06:28:17.225Z,135.00
2022-09-28T06:29:19.437Z,135.00
2022-09-28T06:30:17.206Z,135.00
2022-09-28T06:31:17.336Z,135.00
2022-09-28T06:32:17.161Z,135.00
2022-09-28T06:33:17.136Z,135.00
2022-09-28T06:34:17.246Z,135.00
2022-09-28T06:35:17.159Z,135.00
2022-09-28T06:36:17.136Z,135.00
2022-09-28T06:37:17.130Z,135.00
2022-09-28T06:38:17.118Z,140.62
2022-09-28T06:39:17.074Z,140.62
2022-09-28T06:40:17.141Z,140.62
2022-09-28T06:41:17.041Z,140.62
2022-09-28T06:42:17.096Z,140.62
2022-09-28T06:43:17.016Z,140.62
2022-09-28T06:44:17.157Z,140.62
2022-09-28T06:45:16.997Z,140.62
2022-09-28T06:46:17.062Z,140.62
2022-09-28T06:47:17.020Z,140.62
2022-09-28T06:48:17.490Z,146.25
2022-09-28T06:49:19.602Z,146.25
2022-09-28T06:50:16.923Z,146.25
2022-09-28T06:51:17.441Z,146.25
2022-09-28T06:52:16.910Z,151.88
2022-09-28T06:53:16.854Z,151.88
2022-09-28T06:54:17.066Z,151.88
2022-09-28T06:55:16.828Z,157.50
2022-09-28T06:56:16.869Z,157.50
2022-09-28T06:57:16.810Z,157.50
2022-09-28T06:58:16.824Z,157.50
2022-09-28T06:59:16.806Z,163.12
2022-09-28T07:00:16.784Z,163.12
2022-09-28T07:01:16.863Z,163.12
2022-09-28T07:02:16.833Z,163.12
2022-09-28T07:03:16.748Z,168.75
2022-09-28T07:04:16.864Z,168.75
2022-09-28T07:05:16.758Z,168.75
2022-09-28T07:06:16.723Z,168.75
2022-09-28T07:07:16.696Z,174.38
2022-09-28T07:08:16.666Z,174.38
2022-09-28T07:09:31.870Z,180.00
2022-09-28T07:10:16.685Z,180.00
2022-09-28T07:11:16.645Z,180.00
2022-09-28T07:12:16.629Z,185.62
2022-09-28T07:13:36.622Z,185.62
2022-09-28T07:14:31.674Z,196.88
2022-09-28T07:15:16.598Z,202.50
2022-09-28T07:16:16.654Z,208.12
2022-09-28T07:17:16.620Z,213.75
2022-09-28T07:18:16.610Z,219.38
2022-09-28T07:19:16.590Z,225.00
2022-09-28T07:20:19.443Z,230.62
2022-09-28T07:21:28.098Z,236.25
2022-09-28T07:22:19.299Z,247.50
2022-09-28T07:23:19.587Z,253.12
2022-09-28T07:24:16.480Z,258.75
2022-09-28T07:25:16.461Z,264.38
2022-09-28T07:26:19.631Z,275.62
2022-09-28T07:27:16.488Z,281.25
2022-09-28T07:28:16.433Z,292.50
2022-09-28T07:29:16.412Z,298.12
2022-09-28T07:30:16.407Z,303.75
2022-09-28T07:31:16.439Z,315.00
2022-09-28T07:32:16.362Z,320.62
2022-09-28T07:33:16.363Z,326.25
2022-09-28T07:34:16.368Z,331.88
2022-09-28T07:35:16.333Z,337.50
2022-09-28T07:36:16.318Z,343.12
2022-09-28T07:37:16.313Z,365.62
2022-09-28T07:38:16.273Z,382.50
2022-09-28T07:39:16.249Z,388.12
2022-09-28T07:40:16.309Z,388.12
2022-09-28T07:41:16.221Z,393.75
2022-09-28T07:42:16.227Z,405.00
2022-09-28T07:43:16.232Z,399.38
2022-09-28T07:44:16.241Z,416.25
2022-09-28T07:45:16.179Z,421.88
2022-09-28T07:46:16.257Z,427.50
2022-09-28T07:47:16.157Z,433.12
2022-09-28T07:48:16.179Z,450.00
2022-09-28T07:49:16.153Z,472.50
2022-09-28T07:50:16.147Z,472.50
2022-09-28T07:51:16.119Z,478.12
2022-09-28T07:52:16.140Z,483.75
2022-09-28T07:53:16.125Z,489.38
2022-09-28T07:54:16.105Z,500.62
2022-09-28T07:55:16.076Z,495.00
2022-09-28T07:56:16.088Z,489.38
2022-09-28T07:57:16.016Z,495.00
2022-09-28T07:58:16.060Z,495.00
2022-09-28T07:59:15.988Z,500.62
2022-09-28T08:00:16.010Z,517.50
2022-09-28T08:01:15.993Z,523.12
2022-09-28T08:02:16.008Z,534.38
2022-09-28T08:03:15.963Z,540.00
2022-09-28T08:04:15.946Z,551.25
2022-09-28T08:05:15.905Z,562.50
2022-09-28T08:06:15.920Z,573.75
2022-09-28T08:07:17.130Z,596.25
2022-09-28T08:08:15.876Z,624.38
2022-09-28T08:09:15.908Z,641.25
2022-09-28T08:10:15.873Z,641.25
2022-09-28T08:11:15.866Z,675.00
2022-09-28T08:12:15.848Z,720.00
2022-09-28T08:13:15.817Z,731.25
2022-09-28T08:14:15.847Z,742.50
2022-09-28T08:15:15.792Z,731.25
2022-09-28T08:16:15.881Z,725.62
2022-09-28T08:17:15.803Z,748.12
2022-09-28T08:18:15.779Z,748.12
2022-09-28T08:19:15.828Z,776.25
2022-09-28T08:20:15.726Z,804.38
2022-09-28T08:21:15.714Z,798.75
2022-09-28T08:22:15.723Z,793.12
2022-09-28T08:23:15.689Z,770.62
2022-09-28T08:24:15.713Z,793.12
2022-09-28T08:25:15.719Z,765.00
2022-09-28T08:26:15.843Z,776.25
2022-09-28T08:27:15.615Z,770.62
2022-09-28T08:28:15.633Z,742.50
2022-09-28T08:29:15.601Z,776.25
2022-09-28T08:30:15.604Z,843.75
2022-09-28T08:31:15.621Z,838.12
2022-09-28T08:32:15.581Z,860.62
2022-09-28T08:33:15.563Z,804.38
2022-09-28T08:34:15.591Z,776.25
2022-09-28T08:35:15.524Z,798.75
2022-09-28T08:36:15.540Z,776.25
2022-09-28T08:37:15.641Z,787.50
2022-09-28T08:38:15.495Z,765.00
2022-09-28T08:39:15.449Z,815.62
2022-09-28T08:40:15.729Z,1372.50
2022-09-28T08:41:15.467Z,1389.38
2022-09-28T08:42:15.456Z,1237.50
2022-09-28T08:43:15.431Z,1299.38
2022-09-28T08:44:15.538Z,1276.88
2022-09-28T08:45:15.401Z,1108.12
2022-09-28T08:46:15.524Z,1068.75
2022-09-28T08:47:15.497Z,1113.75
2022-09-28T08:48:15.594Z,1046.25
2022-09-28T08:49:30.757Z,866.25
2022-09-28T08:50:15.378Z,776.25
2022-09-28T08:51:16.120Z,720.00
2022-09-28T08:52:15.357Z,691.88
2022-09-28T08:53:15.286Z,680.62
2022-09-28T08:54:15.350Z,658.12
2022-09-28T08:55:15.261Z,630.00
2022-09-28T08:56:15.262Z,607.50
2022-09-28T08:57:15.228Z,596.25
2022-09-28T08:58:15.218Z,579.38
2022-09-28T08:59:15.202Z,568.12
2022-09-28T09:00:15.185Z,556.88
2022-09-28T09:01:15.232Z,551.25
2022-09-28T09:02:15.436Z,545.62
2022-09-28T09:03:15.155Z,545.62
2022-09-28T09:04:15.148Z,551.25
2022-09-28T09:05:15.134Z,551.25
2022-09-28T09:06:18.335Z,568.12
2022-09-28T09:07:15.107Z,579.38
2022-09-28T09:08:15.081Z,601.88
2022-09-28T09:09:15.071Z,675.00
2022-09-28T09:10:15.061Z,770.62
2022-09-28T09:11:15.064Z,810.00
2022-09-28T09:12:15.032Z,855.00
2022-09-28T09:13:15.000Z,984.38
2022-09-28T09:14:15.080Z,1057.50
2022-09-28T09:15:14.996Z,1085.62
2022-09-28T09:16:15.007Z,1271.25
2022-09-28T09:17:15.032Z,1215.00
2022-09-28T09:18:17.821Z,1203.75
2022-09-28T09:19:14.919Z,1153.12
2022-09-28T09:20:14.910Z,1091.25
2022-09-28T09:21:14.896Z,1012.50
2022-09-28T09:22:14.923Z,1018.12
2022-09-28T09:23:14.919Z,1040.62
2022-09-28T09:24:14.908Z,1074.38
2022-09-28T09:25:14.839Z,1276.88
2022-09-28T09:26:17.051Z,1501.88
2022-09-28T09:27:14.841Z,1783.12
2022-09-28T09:28:14.817Z,2098.12
2022-09-28T09:29:14.817Z,2092.50
2022-09-28T09:30:17.939Z,2283.75
2022-09-28T09:31:14.844Z,2497.50
2022-09-28T09:32:14.797Z,2587.50
2022-09-28T09:33:14.806Z,2587.50
2022-09-28T09:34:14.927Z,2486.25
2022-09-28T09:35:14.733Z,2413.12
2022-09-28T09:36:14.705Z,2300.62
2022-09-28T09:37:14.721Z,2109.38
2022-09-28T09:38:14.692Z,1963.12
2022-09-28T09:39:14.669Z,1918.12
2022-09-28T09:40:14.686Z,1833.75
2022-09-28T09:41:14.813Z,1890.00
2022-09-28T09:42:14.611Z,2053.12
2022-09-28T09:43:14.629Z,1423.12
2022-09-28T09:44:14.683Z,967.50
2022-09-28T09:45:14.578Z,1136.25
2022-09-28T09:46:14.668Z,1344.38
2022-09-28T09:47:14.568Z,1130.62
2022-09-28T09:48:14.691Z,871.88
2022-09-28T09:49:14.571Z,832.50
2022-09-28T09:50:14.555Z,1108.12
2022-09-28T09:51:14.504Z,900.00
2022-09-28T09:52:14.486Z,793.12
2022-09-28T09:53:14.470Z,776.25
2022-09-28T09:54:14.552Z,781.88
2022-09-28T09:55:14.458Z,843.75
2022-09-28T09:56:14.425Z,742.50
2022-09-28T09:57:14.445Z,770.62
2022-09-28T09:58:14.405Z,826.88
2022-09-28T09:59:14.430Z,928.12
2022-09-28T10:00:14.627Z,1203.75
2022-09-28T10:01:14.472Z,1243.12
2022-09-28T10:02:14.449Z,1260.00
2022-09-28T10:03:14.551Z,1276.88
2022-09-28T10:04:14.336Z,1175.62
2022-09-28T10:05:14.664Z,1231.88
2022-09-28T10:06:14.654Z,1378.12
2022-09-28T10:07:14.700Z,1845.00
2022-09-28T10:08:14.407Z,1513.12
2022-09-28T10:09:14.475Z,1507.50
2022-09-28T10:10:14.621Z,1333.12
2022-09-28T10:11:14.680Z,1411.88
2022-09-28T10:12:14.464Z,1254.38
2022-09-28T10:13:14.598Z,1198.12
2022-09-28T10:14:14.292Z,1175.62
2022-09-28T10:15:14.234Z,1130.62
2022-09-28T10:16:14.505Z,1029.38
2022-09-28T10:17:14.587Z,1080.00
2022-09-28T10:18:14.196Z,1158.75
2022-09-28T10:19:14.569Z,1400.62
2022-09-28T10:20:14.525Z,1040.62
2022-09-28T10:21:14.257Z,973.12
2022-09-28T10:22:14.131Z,967.50
2022-09-28T10:23:14.141Z,1001.25
2022-09-28T10:24:14.306Z,995.62
2022-09-28T10:25:14.160Z,1006.88
2022-09-28T10:26:14.141Z,973.12
2022-09-28T10:27:14.285Z,978.75
2022-09-28T10:28:14.289Z,967.50
2022-09-28T10:29:14.260Z,967.50
2022-09-28T10:30:14.230Z,956.25
2022-09-28T10:31:14.236Z,911.25
2022-09-28T10:32:14.312Z,866.25
2022-09-28T10:33:14.307Z,821.25
2022-09-28T10:34:14.269Z,776.25
2022-09-28T10:35:14.100Z,736.88
2022-09-28T10:36:14.176Z,697.50
2022-09-28T10:37:14.199Z,646.88
2022-09-28T10:38:14.232Z,601.88
2022-09-28T10:39:14.244Z,551.25
2022-09-28T10:40:14.801Z,506.25
2022-09-28T10:41:14.274Z,461.25
2022-09-28T10:42:14.330Z,433.12
2022-09-28T10:43:14.229Z,416.25
2022-09-28T10:44:14.184Z,410.62
2022-09-28T10:45:14.268Z,416.25
2022-09-28T10:46:13.989Z,427.50
2022-09-28T10:47:13.800Z,444.38
2022-09-28T10:48:13.834Z,478.12
2022-09-28T10:49:13.746Z,517.50
2022-09-28T10:50:13.725Z,534.38
2022-09-28T10:51:13.695Z,562.50
2022-09-28T10:52:13.692Z,590.62
2022-09-28T10:53:13.703Z,607.50
2022-09-28T10:54:13.848Z,618.75
2022-09-28T10:55:13.735Z,624.38
2022-09-28T10:56:13.649Z,618.75
2022-09-28T10:57:13.793Z,601.88
2022-09-28T10:58:13.768Z,590.62
2022-09-28T10:59:13.606Z,573.75
2022-09-28T11:00:13.612Z,568.12
2022-09-28T11:01:13.776Z,562.50
2022-09-28T11:02:13.789Z,556.88
2022-09-28T11:03:14.514Z,545.62
2022-09-28T11:04:13.750Z,534.38
2022-09-28T11:05:13.678Z,517.50
2022-09-28T11:06:13.737Z,489.38
2022-09-28T11:07:15.380Z,461.25
2022-09-28T11:08:13.769Z,444.38
2022-09-28T11:09:13.775Z,427.50
2022-09-28T11:10:13.872Z,410.62
2022-09-28T11:11:13.705Z,393.75
2022-09-28T11:12:13.720Z,382.50
2022-09-28T11:13:13.639Z,376.88
2022-09-28T11:14:13.704Z,376.88
2022-09-28T11:15:13.600Z,376.88
2022-09-28T11:16:13.504Z,388.12
2022-09-28T11:17:13.460Z,399.38
2022-09-28T11:18:13.539Z,405.00
2022-09-28T11:19:13.328Z,421.88
2022-09-28T11:20:13.337Z,433.12
2022-09-28T11:21:13.356Z,450.00
2022-09-28T11:22:14.070Z,461.25
2022-09-28T11:23:13.326Z,472.50
2022-09-28T11:24:18.036Z,478.12
2022-09-28T11:25:13.276Z,483.75
2022-09-28T11:26:18.459Z,478.12
2022-09-28T11:27:13.287Z,472.50
2022-09-28T11:28:13.248Z,455.62
2022-09-28T11:29:13.290Z,438.75
2022-09-28T11:30:13.193Z,427.50
2022-09-28T11:31:13.236Z,416.25
2022-09-28T11:32:15.842Z,416.25
2022-09-28T11:33:13.935Z,416.25
2022-09-28T11:34:13.229Z,410.62
2022-09-28T11:35:13.229Z,410.62
2022-09-28T11:36:13.173Z,405.00
2022-09-28T11:37:13.133Z,399.38
2022-09-28T11:38:13.080Z,393.75
2022-09-28T11:39:13.114Z,382.50
2022-09-28T11:40:13.066Z,371.25
2022-09-28T11:41:13.047Z,365.62
2022-09-28T11:42:16.256Z,365.62
2022-09-28T11:43:15.771Z,360.00
2022-09-28T11:44:13.041Z,360.00
2022-09-28T11:45:13.042Z,354.38
2022-09-28T11:46:13.059Z,354.38
2022-09-28T11:47:12.970Z,354.38
2022-09-28T11:48:12.998Z,354.38
2022-09-28T11:49:12.982Z,348.75
2022-09-28T11:50:12.982Z,348.75
2022-09-28T11:51:12.948Z,343.12
2022-09-28T11:52:12.964Z,343.12
2022-09-28T11:53:12.970Z,343.12
2022-09-28T11:54:13.025Z,337.50
2022-09-28T11:55:13.013Z,337.50
2022-09-28T11:56:13.030Z,331.88
2022-09-28T11:57:12.887Z,331.88
2022-09-28T11:58:13.446Z,331.88
2022-09-28T11:59:12.967Z,326.25
2022-09-28T12:00:12.934Z,326.25
2022-09-28T12:01:17.992Z,320.62
2022-09-28T12:02:13.115Z,315.00
2022-09-28T12:03:12.940Z,315.00
2022-09-28T12:04:13.059Z,309.38
2022-09-28T12:05:14.905Z,303.75
2022-09-28T12:06:13.003Z,303.75
2022-09-28T12:07:13.070Z,298.12
2022-09-28T12:08:12.911Z,292.50
2022-09-28T12:09:12.789Z,286.88
2022-09-28T12:10:12.777Z,286.88
2022-09-28T12:11:13.371Z,286.88
2022-09-28T12:12:12.640Z,281.25
2022-09-28T12:13:12.674Z,275.62
2022-09-28T12:14:12.643Z,275.62
2022-09-28T12:15:12.616Z,270.00
2022-09-28T12:16:32.815Z,264.38
2022-09-28T12:17:16.488Z,264.38
2022-09-28T12:18:12.643Z,264.38
2022-09-28T12:19:12.584Z,264.38
2022-09-28T12:20:12.548Z,264.38
2022-09-28T12:21:12.521Z,264.38
2022-09-28T12:22:12.523Z,264.38
2022-09-28T12:23:12.504Z,264.38
2022-09-28T12:24:12.495Z,264.38
2022-09-28T12:25:12.528Z,264.38
2022-09-28T12:26:12.466Z,264.38
2022-09-28T12:27:12.452Z,270.00
2022-09-28T12:28:12.545Z,264.38
2022-09-28T12:29:12.406Z,264.38
2022-09-28T12:30:12.420Z,264.38
2022-09-28T12:31:12.470Z,264.38
2022-09-28T12:32:12.391Z,264.38
2022-09-28T12:33:12.426Z,270.00
2022-09-28T12:34:12.346Z,270.00
2022-09-28T12:35:12.324Z,281.25
2022-09-28T12:36:12.331Z,275.62
2022-09-28T12:37:12.336Z,281.25
2022-09-28T12:38:12.302Z,281.25
2022-09-28T12:39:21.760Z,286.88
2022-09-28T12:40:12.326Z,292.50
2022-09-28T12:41:12.301Z,298.12
2022-09-28T12:42:12.243Z,303.75
2022-09-28T12:43:12.244Z,309.38
2022-09-28T12:44:12.290Z,315.00
2022-09-28T12:45:12.238Z,320.62
2022-09-28T12:46:12.986Z,326.25
2022-09-28T12:47:12.254Z,326.25